createdAt,value
2017-05-11T00:01:55.419Z,6.80
2017-05-11T00:04:24.640Z,7.16
2017-05-11T00:06:53.831Z,6.80
2017-05-11T00:09:23.042Z,6.36
2017-05-11T00:11:52.247Z,6.30
2017-05-11T00:14:22.199Z,6.60
2017-05-11T00:16:51.390Z,7.30
2017-05-11T00:19:20.856Z,5.00
2017-05-11T00:21:50.063Z,5.90
2017-05-11T00:24:19.339Z,5.80
2017-05-11T00:26:48.544Z,4.90
2017-05-11T00:29:17.744Z,5.26
2017-05-11T00:31:46.933Z,5.54
2017-05-11T00:34:16.123Z,4.60
2017-05-11T00:36:45.440Z,4.22
2017-05-11T00:39:14.648Z,4.72
2017-05-11T00:41:43.847Z,5.22
2017-05-11T00:44:12.700Z,4.94
2017-05-11T00:46:41.999Z,5.06
2017-05-11T00:49:11.235Z,3.90
2017-05-11T00:51:40.423Z,5.06
2017-05-11T00:54:09.622Z,4.54
2017-05-11T00:56:38.828Z,4.98
2017-05-11T00:59:08.065Z,4.78
2017-05-11T01:01:38.017Z,5.82
2017-05-11T01:04:07.207Z,5.32
2017-05-11T01:06:36.396Z,4.36
2017-05-11T01:09:05.279Z,5.10
2017-05-11T01:11:35.203Z,4.58
2017-05-11T01:14:04.428Z,4.60
2017-05-11T01:16:33.631Z,4.98
2017-05-11T01:19:02.847Z,4.20
2017-05-11T01:21:32.719Z,4.50
2017-05-11T01:24:01.928Z,4.46
2017-05-11T01:26:31.124Z,4.12
2017-05-11T01:29:00.307Z,3.38
2017-05-11T01:31:30.342Z,3.90
2017-05-11T01:33:59.644Z,4.32
2017-05-11T01:36:28.844Z,4.30
2017-05-11T01:38:58.145Z,4.16
2017-05-11T01:41:27.335Z,3.36
2017-05-11T01:43:56.514Z,3.50
2017-05-11T01:46:26.459Z,3.76
2017-05-11T01:48:55.656Z,3.24
2017-05-11T01:51:24.853Z,4.54
2017-05-11T01:53:54.064Z,4.38
2017-05-11T01:56:23.264Z,3.22
2017-05-11T01:58:52.631Z,3.92
2017-05-11T02:01:22.567Z,3.60
2017-05-11T02:03:52.515Z,3.40
2017-05-11T02:06:21.706Z,3.84
2017-05-11T02:08:50.997Z,3.46
2017-05-11T02:11:20.187Z,4.26
2017-05-11T02:13:49.399Z,3.54
2017-05-11T02:16:18.607Z,4.42
2017-05-11T02:18:47.799Z,4.40
2017-05-11T02:21:17.020Z,4.62
2017-05-11T02:23:46.211Z,4.44
2017-05-11T02:26:15.407Z,4.32
2017-05-11T02:28:44.618Z,3.86
2017-05-11T02:31:13.799Z,4.32
2017-05-11T02:33:43.007Z,3.60
2017-05-11T02:36:12.355Z,4.02
2017-05-11T02:38:42.299Z,3.62
2017-05-11T02:41:11.508Z,4.46
2017-05-11T02:43:40.696Z,3.96
2017-05-11T02:46:09.900Z,4.66
2017-05-11T02:48:39.088Z,4.96
2017-05-11T02:51:09.069Z,5.24
2017-05-11T02:53:38.955Z,4.84
2017-05-11T02:56:08.179Z,5.16
2017-05-11T02:58:37.373Z,4.52
2017-05-11T03:01:06.583Z,4.48
2017-05-11T03:03:35.790Z,4.70
2017-05-11T03:06:04.979Z,4.60
2017-05-11T03:08:34.191Z,5.08
2017-05-11T03:11:03.387Z,4.80
2017-05-11T03:13:32.583Z,5.16
2017-05-11T03:16:01.784Z,4.92
2017-05-11T03:18:30.995Z,4.84
2017-05-11T03:21:00.215Z,5.92
2017-05-11T03:23:30.084Z,6.00
2017-05-11T03:26:00.035Z,4.42
2017-05-11T03:28:29.980Z,4.70
2017-05-11T03:30:59.174Z,4.26
2017-05-11T03:33:28.381Z,5.18
2017-05-11T03:35:57.566Z,5.80
2017-05-11T03:38:26.756Z,4.90
2017-05-11T03:40:56.662Z,4.90
2017-05-11T03:43:26.741Z,4.78
2017-05-11T03:45:56.828Z,4.78
2017-05-11T03:48:26.062Z,4.70
2017-05-11T03:50:55.266Z,4.34
2017-05-11T03:53:25.252Z,5.28
2017-05-11T03:55:54.567Z,4.80
2017-05-11T03:58:23.768Z,4.70
2017-05-11T04:00:52.999Z,4.98
2017-05-11T04:03:22.354Z,5.16
2017-05-11T04:05:51.586Z,4.68
2017-05-11T04:08:20.925Z,4.98
2017-05-11T04:10:50.875Z,4.62
2017-05-11T04:13:20.104Z,5.22
2017-05-11T04:15:49.299Z,5.16
2017-05-11T04:18:18.507Z,4.86
2017-05-11T04:20:47.724Z,6.12
2017-05-11T04:23:16.922Z,5.42
2017-05-11T04:25:46.159Z,4.68
2017-05-11T04:28:15.343Z,5.70
2017-05-11T04:30:45.292Z,4.60
2017-05-11T04:33:14.496Z,4.54
2017-05-11T04:35:43.687Z,4.76
2017-05-11T04:38:12.901Z,4.74
2017-05-11T04:40:42.097Z,6.12
2017-05-11T04:43:11.320Z,6.04
2017-05-11T04:45:41.287Z,4.82
2017-05-11T04:48:10.515Z,5.82
2017-05-11T04:50:39.691Z,6.24
2017-05-11T04:53:08.929Z,4.62
2017-05-11T04:55:38.132Z,5.04
2017-05-11T04:58:07.348Z,6.52
2017-05-11T05:00:36.567Z,6.12
2017-05-11T05:03:06.507Z,5.96
2017-05-11T05:05:35.745Z,6.08
2017-05-11T05:08:04.944Z,6.52
2017-05-11T05:10:34.163Z,5.80
2017-05-11T05:13:03.395Z,6.20
2017-05-11T05:15:32.839Z,6.58
2017-05-11T05:18:02.055Z,6.60
2017-05-11T05:20:31.278Z,6.46
2017-05-11T05:23:00.459Z,6.76
2017-05-11T05:25:29.728Z,6.06
2017-05-11T05:27:59.023Z,5.76
2017-05-11T05:30:28.219Z,7.08
2017-05-11T05:32:57.442Z,7.54
2017-05-11T05:35:27.322Z,6.70
2017-05-11T05:37:56.551Z,6.64
2017-05-11T05:40:25.863Z,8.44
2017-05-11T05:42:55.069Z,8.98
2017-05-11T05:45:25.007Z,8.38
2017-05-11T05:47:54.279Z,7.68
2017-05-11T05:50:23.511Z,7.68
2017-05-11T05:52:52.531Z,9.42
2017-05-11T05:55:21.756Z,6.84
2017-05-11T05:57:50.963Z,7.70
2017-05-11T06:00:20.212Z,6.82
2017-05-11T06:02:50.223Z,8.12
2017-05-11T06:05:19.415Z,7.64
2017-05-11T06:07:48.632Z,7.46
2017-05-11T06:10:18.592Z,7.32
2017-05-11T06:12:47.817Z,7.40
2017-05-11T06:15:17.028Z,7.78
2017-05-11T06:17:47.051Z,7.48
2017-05-11T06:20:16.315Z,6.78
2017-05-11T06:22:45.507Z,7.26
2017-05-11T06:25:14.828Z,6.88
2017-05-11T06:27:44.022Z,7.86
2017-05-11T06:30:14.078Z,7.64
2017-05-11T06:32:43.077Z,7.76
2017-05-11T06:35:12.277Z,8.14
2017-05-11T06:37:41.483Z,8.94
2017-05-11T06:40:11.443Z,8.62
2017-05-11T06:42:40.662Z,9.00
2017-05-11T06:45:09.956Z,9.52
2017-05-11T06:47:39.163Z,9.48
2017-05-11T06:50:08.391Z,8.88
2017-05-11T06:52:37.587Z,9.34
2017-05-11T06:55:06.788Z,8.82
2017-05-11T06:57:36.001Z,9.62
2017-05-11T07:00:06.001Z,9.92
2017-05-11T07:02:35.199Z,9.38
2017-05-11T07:05:04.537Z,9.18
2017-05-11T07:07:33.744Z,9.92
2017-05-11T07:10:02.964Z,10.16
2017-05-11T07:12:32.164Z,9.12
2017-05-11T07:15:01.356Z,10.04
2017-05-11T07:17:30.657Z,8.88
2017-05-11T07:19:59.984Z,8.36
2017-05-11T07:22:29.195Z,7.68
2017-05-11T07:24:58.452Z,8.26
2017-05-11T07:27:27.644Z,8.98
2017-05-11T07:29:56.847Z,7.40
2017-05-11T07:32:26.131Z,7.12
2017-05-11T07:34:56.085Z,7.24
2017-05-11T07:37:25.297Z,6.78
2017-05-11T07:39:54.663Z,6.52
2017-05-11T07:42:23.874Z,6.22
2017-05-11T07:44:54.484Z,5.80
2017-05-11T07:47:23.703Z,5.56
2017-05-11T07:49:52.900Z,5.78
2017-05-11T07:52:22.104Z,6.92
2017-05-11T07:54:51.123Z,6.20
2017-05-11T07:57:20.324Z,5.78
2017-05-11T07:59:49.525Z,6.24
2017-05-11T08:02:18.768Z,6.38
2017-05-11T08:04:48.715Z,6.20
2017-05-11T08:07:17.927Z,5.82
2017-05-11T08:09:47.117Z,6.68
2017-05-11T08:12:17.429Z,6.56
2017-05-11T08:14:46.608Z,5.76
2017-05-11T08:17:16.592Z,6.02
2017-05-11T08:19:45.800Z,6.98
2017-05-11T08:22:15.004Z,7.24
2017-05-11T08:24:44.219Z,6.30
2017-05-11T08:27:14.165Z,6.60
2017-05-11T08:29:43.378Z,6.30
2017-05-11T08:32:13.251Z,6.50
2017-05-11T08:34:43.212Z,6.76
2017-05-11T08:37:12.400Z,6.74
2017-05-11T08:39:41.662Z,6.00
2017-05-11T08:42:10.856Z,6.14
2017-05-11T08:44:40.137Z,5.84
2017-05-11T08:47:09.377Z,5.54
2017-05-11T08:49:38.589Z,5.22
2017-05-11T08:52:07.772Z,5.02
2017-05-11T08:54:36.993Z,6.84
2017-05-11T08:57:06.170Z,5.86
2017-05-11T08:59:35.376Z,5.04
2017-05-11T09:02:04.603Z,5.42
2017-05-11T09:04:33.828Z,5.24
2017-05-11T09:07:03.040Z,5.08
2017-05-11T09:09:32.240Z,5.52
2017-05-11T09:12:01.435Z,4.96
2017-05-11T09:14:30.688Z,5.24
2017-05-11T09:16:59.902Z,4.10
2017-05-11T09:19:29.224Z,4.28
2017-05-11T09:21:58.444Z,3.78
2017-05-11T09:24:28.327Z,3.54
2017-05-11T09:26:57.546Z,3.66
2017-05-11T09:29:26.747Z,3.32
2017-05-11T09:31:55.949Z,3.94
2017-05-11T09:34:25.144Z,3.20
2017-05-11T09:36:54.367Z,3.62
2017-05-11T09:39:23.568Z,2.98
2017-05-11T09:41:52.777Z,3.68
2017-05-11T09:44:21.955Z,3.34
2017-05-11T09:46:51.144Z,3.70
2017-05-11T09:49:20.357Z,3.56
2017-05-11T09:51:49.555Z,3.72
2017-05-11T09:54:18.763Z,3.14
2017-05-11T09:56:47.957Z,3.30
2017-05-11T09:59:17.163Z,3.08
2017-05-11T10:01:47.084Z,3.52
2017-05-11T10:04:16.309Z,4.42
2017-05-11T10:06:45.506Z,3.64
2017-05-11T10:09:14.694Z,3.78
2017-05-11T10:11:43.919Z,3.60
2017-05-11T10:14:13.183Z,3.62
2017-05-11T10:16:42.456Z,3.18
2017-05-11T10:19:11.658Z,2.72
2017-05-11T10:21:40.847Z,3.10
2017-05-11T10:24:10.051Z,3.20
2017-05-11T10:26:39.240Z,3.04
2017-05-11T10:29:08.452Z,3.44
2017-05-11T10:31:37.664Z,3.60
2017-05-11T10:34:06.863Z,3.20
2017-05-11T10:36:36.083Z,3.04
2017-05-11T10:39:06.009Z,3.32
2017-05-11T10:41:35.442Z,2.60
2017-05-11T10:44:04.639Z,2.48
2017-05-11T10:46:33.862Z,2.50
2017-05-11T10:49:03.162Z,2.22
2017-05-11T10:51:32.376Z,2.84
2017-05-11T10:54:01.592Z,2.56
2017-05-11T10:56:30.805Z,3.18
2017-05-11T10:59:00.001Z,2.92
2017-05-11T11:01:29.188Z,3.26
2017-05-11T11:03:58.415Z,2.74
2017-05-11T11:06:27.607Z,2.82
2017-05-11T11:08:56.822Z,2.68
2017-05-11T11:11:26.003Z,2.98
2017-05-11T11:13:55.976Z,2.70
2017-05-11T11:16:25.157Z,2.98
2017-05-11T11:18:54.339Z,2.40
2017-05-11T11:21:23.631Z,2.32
2017-05-11T11:23:52.820Z,2.78
2017-05-11T11:26:22.771Z,2.58
2017-05-11T11:28:51.959Z,3.00
2017-05-11T11:31:21.156Z,2.44
2017-05-11T11:33:50.363Z,2.18
2017-05-11T11:36:19.551Z,2.36
2017-05-11T11:38:48.739Z,2.46
2017-05-11T11:41:17.949Z,2.56
2017-05-11T11:43:47.149Z,2.46
2017-05-11T11:46:16.396Z,2.20
2017-05-11T11:48:45.620Z,2.04
2017-05-11T11:51:15.584Z,1.86
2017-05-11T11:53:44.767Z,1.80
2017-05-11T11:56:13.992Z,2.02
2017-05-11T11:58:43.218Z,2.88
2017-05-11T12:01:13.110Z,1.68
2017-05-11T12:03:42.310Z,1.80
2017-05-11T12:06:11.579Z,1.84
2017-05-11T12:08:40.808Z,2.12
2017-05-11T12:11:10.015Z,1.82
2017-05-11T12:13:39.559Z,1.72
2017-05-11T12:16:09.499Z,1.90
2017-05-11T12:18:38.724Z,2.02
2017-05-11T12:21:07.931Z,1.46
2017-05-11T12:23:37.133Z,2.32
2017-05-11T12:26:06.347Z,1.64
2017-05-11T12:28:35.551Z,1.88
2017-05-11T12:31:04.767Z,1.36
2017-05-11T12:33:34.727Z,1.20
2017-05-11T12:36:03.948Z,1.32
2017-05-11T12:38:33.151Z,1.70
2017-05-11T12:41:03.043Z,1.36
2017-05-11T12:43:32.471Z,1.62
2017-05-11T12:46:01.687Z,1.26
2017-05-11T12:48:30.894Z,1.52
2017-05-11T12:51:00.120Z,1.28
2017-05-11T12:53:30.093Z,1.28
2017-05-11T12:55:59.280Z,1.44
2017-05-11T12:58:29.167Z,1.40
2017-05-11T13:00:58.382Z,1.04
2017-05-11T13:03:27.575Z,1.10
2017-05-11T13:05:56.798Z,0.96
2017-05-11T13:08:26.016Z,1.20
2017-05-11T13:10:55.239Z,1.20
2017-05-11T13:13:24.451Z,1.38
2017-05-11T13:15:53.640Z,1.20
2017-05-11T13:18:22.826Z,1.12
2017-05-11T13:20:52.044Z,1.32
2017-05-11T13:23:21.232Z,1.22
2017-05-11T13:25:50.447Z,1.06
2017-05-11T13:28:19.646Z,1.32
2017-05-11T13:30:49.561Z,1.40
2017-05-11T13:33:18.764Z,1.02
2017-05-11T13:35:47.968Z,1.38
2017-05-11T13:38:17.203Z,1.66
2017-05-11T13:40:46.396Z,1.36
2017-05-11T13:43:15.607Z,1.80
2017-05-11T13:45:45.551Z,1.42
2017-05-11T13:48:14.770Z,1.70
2017-05-11T13:50:43.957Z,1.64
2017-05-11T13:53:13.209Z,1.28
2017-05-11T13:55:42.404Z,1.70
2017-05-11T13:58:11.655Z,1.58
2017-05-11T14:00:40.899Z,1.54
2017-05-11T14:03:10.106Z,1.56
2017-05-11T14:05:39.389Z,1.80
2017-05-11T14:08:08.567Z,1.34
2017-05-11T14:10:37.793Z,1.70
2017-05-11T14:13:07.033Z,1.80
2017-05-11T14:15:36.228Z,1.88
2017-05-11T14:18:05.500Z,1.76
2017-05-11T14:20:35.371Z,1.72
2017-05-11T14:23:04.601Z,1.54
2017-05-11T14:25:33.804Z,1.60
2017-05-11T14:28:03.006Z,1.50
2017-05-11T14:30:32.209Z,1.90
2017-05-11T14:33:01.416Z,2.12
2017-05-11T14:35:30.618Z,1.50
2017-05-11T14:37:59.660Z,2.70
2017-05-11T14:40:28.667Z,1.88
2017-05-11T14:42:57.940Z,1.58
2017-05-11T14:45:27.275Z,1.30
2017-05-11T14:47:56.427Z,1.30
2017-05-11T14:50:25.640Z,1.36
2017-05-11T14:52:54.823Z,1.88
2017-05-11T14:55:24.050Z,1.42
2017-05-11T14:57:53.288Z,1.26
2017-05-11T15:00:22.523Z,1.40
2017-05-11T15:02:51.765Z,1.76
2017-05-11T15:05:20.971Z,1.70
2017-05-11T15:07:50.235Z,1.70
2017-05-11T15:10:19.408Z,1.60
2017-05-11T15:12:48.636Z,1.66
2017-05-11T15:15:17.830Z,1.40
2017-05-11T15:17:47.027Z,1.40
2017-05-11T15:20:16.250Z,1.74
2017-05-11T15:22:45.442Z,1.62
2017-05-11T15:25:14.652Z,1.70
2017-05-11T15:27:43.844Z,1.88
2017-05-11T15:30:13.052Z,1.68
2017-05-11T15:32:42.276Z,2.84
2017-05-11T15:35:11.467Z,2.94
2017-05-11T15:37:40.708Z,1.86
2017-05-11T15:40:09.911Z,1.80
2017-05-11T15:42:39.123Z,1.70
2017-05-11T15:45:08.337Z,1.38
2017-05-11T15:47:37.603Z,2.22
2017-05-11T15:50:06.793Z,2.42
2017-05-11T15:52:35.997Z,1.40
2017-05-11T15:55:05.204Z,2.20
2017-05-11T15:57:34.404Z,1.72
2017-05-11T16:00:03.611Z,1.90
2017-05-11T16:02:32.836Z,1.64
2017-05-11T16:05:02.049Z,1.60
2017-05-11T16:07:31.331Z,1.46
2017-05-11T16:10:00.567Z,1.32
2017-05-11T16:12:29.743Z,1.20
2017-05-11T16:14:58.972Z,1.20
2017-05-11T16:17:28.203Z,1.14
2017-05-11T16:19:57.423Z,1.44
2017-05-11T16:22:26.685Z,1.20
2017-05-11T16:24:55.892Z,1.28
2017-05-11T16:27:25.227Z,1.62
2017-05-11T16:29:55.739Z,1.76
2017-05-11T16:32:24.926Z,1.52
2017-05-11T16:34:54.136Z,1.70
2017-05-11T16:37:23.406Z,1.62
2017-05-11T16:39:52.614Z,1.76
2017-05-11T16:42:21.839Z,1.76
2017-05-11T16:44:51.024Z,1.68
2017-05-11T16:47:20.261Z,2.14
2017-05-11T16:49:49.439Z,1.48
2017-05-11T16:52:18.639Z,1.30
2017-05-11T16:54:47.864Z,1.34
2017-05-11T16:57:17.075Z,1.98
2017-05-11T16:59:47.041Z,1.38
2017-05-11T17:02:16.232Z,1.78
2017-05-11T17:04:45.443Z,1.40
2017-05-11T17:07:14.648Z,1.46
2017-05-11T17:09:43.846Z,1.54
2017-05-11T17:12:13.051Z,1.64
2017-05-11T17:14:42.273Z,1.84
2017-05-11T17:17:11.481Z,2.52
2017-05-11T17:19:40.725Z,1.90
2017-05-11T17:22:10.049Z,2.10
2017-05-11T17:24:39.265Z,2.14
2017-05-11T17:27:08.560Z,2.24
2017-05-11T17:29:37.768Z,2.80
2017-05-11T17:32:06.976Z,3.10
2017-05-11T17:34:36.201Z,2.56
2017-05-11T17:37:05.390Z,2.00
2017-05-11T17:39:34.613Z,2.08
2017-05-11T17:42:03.823Z,2.10
2017-05-11T17:44:33.043Z,2.04
2017-05-11T17:47:02.235Z,2.32
2017-05-11T17:49:31.535Z,2.32
2017-05-11T17:52:00.870Z,2.48
2017-05-11T17:54:30.064Z,2.40
2017-05-11T17:56:59.326Z,1.98
2017-05-11T17:59:29.231Z,2.20
2017-05-11T18:01:59.676Z,2.58
2017-05-11T18:04:28.858Z,2.70
2017-05-11T18:06:58.095Z,2.12
2017-05-11T18:09:27.288Z,2.68
2017-05-11T18:11:56.485Z,3.16
2017-05-11T18:14:25.700Z,2.72
2017-05-11T18:16:54.899Z,2.54
2017-05-11T18:19:24.119Z,2.82
2017-05-11T18:21:53.443Z,2.80
2017-05-11T18:24:23.393Z,2.48
2017-05-11T18:26:52.645Z,2.70
2017-05-11T18:29:21.861Z,2.90
2017-05-11T18:31:51.835Z,2.54
2017-05-11T18:34:21.057Z,2.26
2017-05-11T18:36:50.270Z,1.86
2017-05-11T18:39:19.564Z,2.18
2017-05-11T18:41:48.775Z,1.90
2017-05-11T18:44:18.747Z,2.24
2017-05-11T18:46:47.945Z,2.14
2017-05-11T18:49:17.194Z,2.32
2017-05-11T18:51:47.192Z,2.04
2017-05-11T18:54:16.387Z,2.04
2017-05-11T18:56:45.612Z,2.40
2017-05-11T18:59:15.863Z,1.56
2017-05-11T19:01:45.059Z,1.76
2017-05-11T19:04:14.367Z,2.06
2017-05-11T19:06:43.551Z,1.88
2017-05-11T19:09:12.761Z,1.94
2017-05-11T19:11:41.985Z,2.00
2017-05-11T19:14:11.239Z,2.48
2017-05-11T19:16:41.207Z,2.34
2017-05-11T19:19:10.402Z,1.92
2017-05-11T19:21:39.574Z,2.40
2017-05-11T19:24:08.791Z,2.12
2017-05-11T19:26:39.421Z,3.30
2017-05-11T19:29:08.643Z,2.58
2017-05-11T19:31:37.843Z,8.04
2017-05-11T19:34:07.072Z,8.82
2017-05-11T19:36:36.340Z,5.62
2017-05-11T19:39:05.200Z,3.96
2017-05-11T19:41:34.436Z,2.90
2017-05-11T19:44:03.660Z,2.20
2017-05-11T19:46:33.540Z,2.14
2017-05-11T19:49:02.784Z,1.60
2017-05-11T19:51:32.004Z,1.96
2017-05-11T19:54:01.193Z,2.42
2017-05-11T19:56:30.408Z,1.96
2017-05-11T19:58:59.685Z,2.10
2017-05-11T20:01:28.892Z,2.32
2017-05-11T20:03:58.107Z,2.32
2017-05-11T20:06:27.317Z,2.38
2017-05-11T20:08:56.530Z,2.60
2017-05-11T20:11:25.769Z,3.10
2017-05-11T20:13:54.968Z,3.40
2017-05-11T20:16:24.180Z,3.80
2017-05-11T20:18:53.442Z,3.56
2017-05-11T20:21:22.714Z,3.32
2017-05-11T20:23:51.920Z,3.12
2017-05-11T20:26:21.116Z,3.16
2017-05-11T20:28:50.304Z,2.66
2017-05-11T20:31:19.543Z,3.54
2017-05-11T20:33:48.760Z,2.92
2017-05-11T20:36:18.023Z,3.28
2017-05-11T20:38:47.912Z,3.54
2017-05-11T20:41:17.131Z,3.62
2017-05-11T20:43:46.347Z,3.68
2017-05-11T20:46:15.565Z,3.72
2017-05-11T20:48:44.764Z,3.50
2017-05-11T20:51:13.953Z,3.42
2017-05-11T20:53:43.168Z,3.40
2017-05-11T20:56:12.375Z,3.40
2017-05-11T20:58:41.588Z,3.64
2017-05-11T21:01:11.452Z,3.62
2017-05-11T21:03:40.667Z,4.14
2017-05-11T21:06:09.883Z,3.96
2017-05-11T21:08:39.113Z,4.10
2017-05-11T21:11:09.075Z,4.74
2017-05-11T21:13:38.300Z,4.80
2017-05-11T21:16:07.516Z,4.60
2017-05-11T21:18:36.708Z,5.20
2017-05-11T21:21:05.948Z,4.68
2017-05-11T21:23:35.159Z,4.98
2017-05-11T21:26:04.397Z,5.16
2017-05-11T21:28:33.607Z,4.98
2017-05-11T21:31:02.804Z,5.38
2017-05-11T21:33:32.026Z,5.88
2017-05-11T21:36:01.991Z,5.38
2017-05-11T21:38:31.185Z,5.00
2017-05-11T21:41:00.364Z,5.02
2017-05-11T21:43:30.263Z,5.34
2017-05-11T21:45:59.467Z,4.10
2017-05-11T21:48:28.656Z,5.16
2017-05-11T21:50:57.863Z,5.24
2017-05-11T21:53:27.067Z,6.02
2017-05-11T21:55:56.268Z,5.56
2017-05-11T21:58:25.501Z,4.78
2017-05-11T22:00:54.708Z,4.52
2017-05-11T22:03:23.972Z,5.08
2017-05-11T22:05:53.167Z,5.24
2017-05-11T22:08:22.386Z,5.30
2017-05-11T22:10:51.608Z,5.02
2017-05-11T22:13:20.811Z,5.02
2017-05-11T22:15:50.076Z,4.36
2017-05-11T22:18:19.304Z,4.30
2017-05-11T22:20:48.512Z,4.78
2017-05-11T22:23:17.704Z,4.64
2017-05-11T22:25:46.903Z,5.10
2017-05-11T22:28:16.111Z,4.60
2017-05-11T22:30:45.295Z,5.00
2017-05-11T22:33:14.504Z,3.86
2017-05-11T22:35:43.739Z,4.58
2017-05-11T22:38:12.960Z,5.32
2017-05-11T22:40:42.154Z,5.26
2017-05-11T22:43:11.364Z,5.56
2017-05-11T22:45:40.576Z,5.98
2017-05-11T22:48:09.800Z,5.42
2017-05-11T22:50:38.993Z,6.00
2017-05-11T22:53:08.201Z,5.86
2017-05-11T22:55:37.391Z,6.12
2017-05-11T22:58:06.584Z,6.34
2017-05-11T23:00:35.817Z,5.32
2017-05-11T23:03:05.680Z,6.42
2017-05-11T23:05:34.913Z,5.94
2017-05-11T23:08:04.100Z,6.10
2017-05-11T23:10:33.276Z,5.42
2017-05-11T23:13:02.500Z,5.28
2017-05-11T23:15:31.691Z,4.48
2017-05-11T23:18:00.871Z,4.52
2017-05-11T23:20:30.093Z,5.34
2017-05-11T23:22:59.439Z,5.24
2017-05-11T23:25:28.639Z,5.30
2017-05-11T23:27:57.850Z,5.10
2017-05-11T23:30:27.735Z,5.88
2017-05-11T23:32:56.927Z,5.46
2017-05-11T23:35:26.140Z,6.32
2017-05-11T23:37:55.380Z,6.14
2017-05-11T23:40:24.572Z,5.84
2017-05-11T23:42:53.780Z,5.28
2017-05-11T23:45:22.984Z,6.08
2017-05-11T23:47:52.206Z,6.06
2017-05-11T23:50:21.415Z,5.28
2017-05-11T23:52:50.713Z,4.92
2017-05-11T23:55:20.631Z,5.28
2017-05-11T23:57:49.856Z,5.34
